Time,TemperatureF,DewpointF,PressureIn,WindDirection,WindDirectionDegrees,WindSpeedMPH,WindSpeedGustMPH,Humidity,HourlyPrecipIn,Conditions,Clouds,dailyrainin,SoftwareType,DateUTC
2013-06-03 00:14:00,60.4,60.0,29.95,NW,309,0.0,-999.0,99,-99.99,,,0.00,weatherlink.com 1.10,2013-06-03 04:14:00,
2013-06-03 00:29:00,60.4,60.0,29.95,NW,309,0.0,-999.0,99,-99.99,,,0.00,weatherlink.com 1.10,2013-06-03 04:29:00,
2013-06-03 00:44:00,60.5,60.0,29.94,NW,309,0.0,-999.0,98,-99.99,,,0.00,weatherlink.com 1.10,2013-06-03 04:44:00,
2013-06-03 00:59:00,60.5,60.0,29.94,NW,309,0.0,-999.0,99,-99.99,,,0.00,weatherlink.com 1.10,2013-06-03 04:59:00,
2013-06-03 01:14:00,60.5,60.0,29.94,NW,309,0.0,-999.0,99,-99.99,,,0.00,weatherlink.com 1.10,2013-06-03 05:14:00,
2013-06-03 01:29:00,60.7,61.0,29.93,NW,309,0.0,-999.0,99,-99.99,,,0.00,weatherlink.com 1.10,2013-06-03 05:29:00,
2013-06-03 01:44:00,60.7,61.0,29.93,NW,309,0.0,-999.0,99,-99.99,,,0.00,weatherlink.com 1.10,2013-06-03 05:44:00,
2013-06-03 01:59:00,60.5,60.0,29.92,NW,309,0.0,-999.0,99,-99.99,,,0.00,weatherlink.com 1.10,2013-06-03 05:59:00,
2013-06-03 02:14:00,60.5,60.0,29.93,NW,309,0.0,-999.0,99,-99.99,,,0.00,weatherlink.com 1.10,2013-06-03 06:14:00,
2013-06-03 02:29:00,60.5,60.0,29.92,NW,309,0.0,-999.0,99,-99.99,,,0.00,weatherlink.com 1.10,2013-06-03 06:29:00,
2013-06-03 02:44:00,60.5,60.0,29.94,NW,309,0.0,-999.0,99,-99.99,,,0.00,weatherlink.com 1.10,2013-06-03 06:44:00,
2013-06-03 02:59:00,60.4,60.0,29.94,NW,309,0.0,-999.0,99,-99.99,,,0.00,weatherlink.com 1.10,2013-06-03 06:59:00,
2013-06-03 03:14:00,60.4,60.0,29.94,NW,309,0.0,-999.0,99,-99.99,,,0.00,weatherlink.com 1.10,2013-06-03 07:14:00,
2013-06-03 03:29:00,60.4,60.0,29.93,NW,309,0.0,-999.0,99,-99.99,,,0.00,weatherlink.com 1.10,2013-06-03 07:29:00,
2013-06-03 03:44:00,60.4,60.0,29.93,SSE,163,0.0,-999.0,99,-99.99,,,0.00,weatherlink.com 1.10,2013-06-03 07:44:00,
2013-06-03 03:59:00,60.4,60.0,29.93,South,171,0.0,-999.0,99,-99.99,,,0.00,weatherlink.com 1.10,2013-06-03 07:59:00,
2013-06-03 04:14:00,60.4,60.0,29.92,South,171,0.0,-999.0,99,-99.99,,,0.00,weatherlink.com 1.10,2013-06-03 08:14:00,
2013-06-03 04:29:00,60.4,60.0,29.92,South,173,0.0,-999.0,99,-99.99,,,0.00,weatherlink.com 1.10,2013-06-03 08:29:00,
2013-06-03 04:44:00,60.4,60.0,29.92,South,173,0.0,-999.0,99,-99.99,,,0.00,weatherlink.com 1.10,2013-06-03 08:44:00,
2013-06-03 04:59:00,60.4,60.0,29.92,South,173,0.0,-999.0,99,-99.99,,,0.00,weatherlink.com 1.10,2013-06-03 08:59:00,
2013-06-03 05:14:00,60.4,60.0,29.92,South,173,0.0,-999.0,99,-99.99,,,0.00,weatherlink.com 1.10,2013-06-03 09:14:00,
2013-06-03 05:29:00,60.2,60.0,29.92,South,173,0.0,-999.0,99,-99.99,,,0.00,weatherlink.com 1.10,2013-06-03 09:29:00,
2013-06-03 05:44:00,60.2,60.0,29.93,South,173,0.0,-999.0,99,-99.99,,,0.00,weatherlink.com 1.10,2013-06-03 09:44:00,
2013-06-03 05:59:00,60.1,60.0,29.93,NW,318,0.0,-999.0,99,-99.99,,,0.00,weatherlink.com 1.10,2013-06-03 09:59:00,
2013-06-03 06:14:00,60.2,60.0,29.93,NW,318,0.0,-999.0,99,-99.99,,,0.00,weatherlink.com 1.10,2013-06-03 10:14:00,
2013-06-03 06:29:00,60.2,60.0,29.93,NW,318,0.0,-999.0,99,-99.99,,,0.00,weatherlink.com 1.10,2013-06-03 10:29:00,
2013-06-03 06:44:00,60.1,60.0,29.94,NW,318,0.0,-999.0,99,-99.99,,,0.00,weatherlink.com 1.10,2013-06-03 10:44:00,
2013-06-03 06:59:00,60.1,60.0,29.94,NW,318,0.0,-999.0,99,-99.99,,,0.00,weatherlink.com 1.10,2013-06-03 10:59:00,
2013-06-03 07:14:00,60.1,60.0,29.95,West,271,0.0,-999.0,99,-99.99,,,0.00,weatherlink.com 1.10,2013-06-03 11:14:00,
2013-06-03 07:29:00,60.2,60.0,29.95,West,271,0.0,-999.0,99,-99.99,,,0.00,weatherlink.com 1.10,2013-06-03 11:29:00,
2013-06-03 07:44:00,60.4,60.0,29.95,West,271,1.0,-999.0,99,-99.99,,,0.00,weatherlink.com 1.10,2013-06-03 11:44:00,
2013-06-03 07:59:00,60.4,60.0,29.95,WNW,301,2.0,-999.0,99,-99.99,,,0.00,weatherlink.com 1.10,2013-06-03 11:59:00,
2013-06-03 08:14:00,60.2,60.0,29.95,WNW,299,2.0,-999.0,99,-99.99,,,0.00,weatherlink.com 1.10,2013-06-03 12:14:00,
2013-06-03 08:29:00,60.5,60.0,29.95,NNW,330,3.0,-999.0,99,-99.99,,,0.00,weatherlink.com 1.10,2013-06-03 12:29:00,
2013-06-03 08:44:00,60.9,61.0,29.95,WSW,253,0.0,-999.0,99,-99.99,,,0.00,weatherlink.com 1.10,2013-06-03 12:44:00,
2013-06-03 08:59:00,61.2,61.0,29.94,WNW,303,2.0,-999.0,98,-99.99,,,0.00,weatherlink.com 1.10,2013-06-03 12:59:00,
2013-06-03 09:14:00,61.3,61.0,29.95,NW,311,3.0,-999.0,98,-99.99,,,0.00,weatherlink.com 1.10,2013-06-03 13:14:00,
2013-06-03 09:29:00,61.3,61.0,29.96,NW,312,2.0,-999.0,97,-99.99,,,0.00,weatherlink.com 1.10,2013-06-03 13:29:00,
2013-06-03 09:44:00,61.8,61.0,29.95,WNW,303,2.0,-999.0,96,-99.99,,,0.00,weatherlink.com 1.10,2013-06-03 13:44:00,
2013-06-03 09:59:00,62.1,60.0,29.95,West,264,3.0,-999.0,92,-99.99,,,0.00,weatherlink.com 1.10,2013-06-03 13:59:00,
2013-06-03 10:14:00,62.7,59.0,29.95,WNW,290,3.0,-999.0,88,-99.99,,,0.00,weatherlink.com 1.10,2013-06-03 14:14:00,
2013-06-03 10:29:00,63.7,60.0,29.95,NW,306,4.0,-999.0,87,-99.99,,,0.00,weatherlink.com 1.10,2013-06-03 14:29:00,
2013-06-03 10:44:00,64.3,60.0,29.95,WNW,290,3.0,-999.0,86,-99.99,,,0.00,weatherlink.com 1.10,2013-06-03 14:44:00,
2013-06-03 10:59:00,65.3,59.0,29.95,NW,326,6.0,-999.0,81,-99.99,,,0.00,weatherlink.com 1.10,2013-06-03 14:59:00,
2013-06-03 11:14:00,65.8,60.0,29.95,WNW,284,1.0,-999.0,81,-99.99,,,0.00,weatherlink.com 1.10,2013-06-03 15:14:00,
2013-06-03 11:29:00,65.8,60.0,29.95,West,281,4.0,-999.0,80,-99.99,,,0.00,weatherlink.com 1.10,2013-06-03 15:29:00,
2013-06-03 11:44:00,66.3,61.0,29.95,NW,309,3.0,-999.0,82,-99.99,,,0.00,weatherlink.com 1.10,2013-06-03 15:44:00,
2013-06-03 11:59:00,66.9,59.0,29.94,West,272,0.0,-999.0,76,-99.99,,,0.00,weatherlink.com 1.10,2013-06-03 15:59:00,
2013-06-03 12:14:00,67.6,60.0,29.95,West,269,2.0,-999.0,76,-99.99,,,0.00,weatherlink.com 1.10,2013-06-03 16:14:00,
2013-06-03 12:30:00,68.1,58.0,29.94,West,259,5.0,-999.0,71,-99.99,,,0.00,weatherlink.com 1.10,2013-06-03 16:30:00,
2013-06-03 12:45:00,68.6,58.0,29.94,West,274,4.0,-999.0,70,-99.99,,,0.00,weatherlink.com 1.10,2013-06-03 16:45:00,
2013-06-03 13:00:00,68.6,58.0,29.93,NW,307,7.0,-999.0,68,-99.99,,,0.00,weatherlink.com 1.10,2013-06-03 17:00:00,
2013-06-03 13:15:00,69.8,59.0,29.93,West,275,7.0,-999.0,68,-99.99,,,0.00,weatherlink.com 1.10,2013-06-03 17:15:00,
2013-06-03 13:30:00,70.3,59.0,29.93,WNW,288,5.0,-999.0,68,-99.99,,,0.00,weatherlink.com 1.10,2013-06-03 17:30:00,
2013-06-03 13:45:00,70.1,59.0,29.93,NW,323,5.0,-999.0,67,-99.99,,,0.00,weatherlink.com 1.10,2013-06-03 17:45:00,
2013-06-03 14:00:00,66.8,60.0,29.93,WNW,284,3.0,-999.0,78,-99.99,,,0.00,weatherlink.com 1.10,2013-06-03 18:00:00,
2013-06-03 14:30:00,68.8,60.0,29.93,WNW,303,6.0,-999.0,74,-99.99,,,0.00,weatherlink.com 1.10,2013-06-03 18:30:00,
2013-06-03 14:45:00,68.6,60.0,29.93,NW,317,5.0,-999.0,73,-99.99,,,0.00,weatherlink.com 1.10,2013-06-03 18:45:00,
2013-06-03 15:00:00,68.9,60.0,29.93,WNW,294,5.0,-999.0,73,-99.99,,,0.00,weatherlink.com 1.10,2013-06-03 19:00:00,
2013-06-03 15:15:00,69.4,59.0,29.92,NW,323,3.0,-999.0,69,-99.99,,,0.00,weatherlink.com 1.10,2013-06-03 19:15:00,
2013-06-03 15:30:00,69.6,59.0,29.92,WNW,303,3.0,-999.0,70,-99.99,,,0.00,weatherlink.com 1.10,2013-06-03 19:30:00,
2013-06-03 15:45:00,70.6,60.0,29.91,NW,313,3.0,-999.0,69,-99.99,,,0.00,weatherlink.com 1.10,2013-06-03 19:45:00,
2013-06-03 16:00:00,69.9,59.0,29.91,WNW,299,2.0,-999.0,69,-99.99,,,0.00,weatherlink.com 1.10,2013-06-03 20:00:00,
2013-06-03 16:15:00,69.4,60.0,29.90,WNW,287,4.0,-999.0,72,-99.99,,,0.00,weatherlink.com 1.10,2013-06-03 20:15:00,
2013-06-03 16:30:00,68.8,59.0,29.91,NW,325,2.0,-999.0,70,-99.99,,,0.00,weatherlink.com 1.10,2013-06-03 20:30:00,
2013-06-03 16:45:00,67.8,58.0,29.92,NNW,338,4.0,-999.0,72,-99.99,,,0.00,weatherlink.com 1.10,2013-06-03 20:45:00,
2013-06-03 17:00:00,66.9,57.0,29.90,WNW,303,3.0,-999.0,71,-99.99,,,0.00,weatherlink.com 1.10,2013-06-03 21:00:00,
2013-06-03 17:15:00,68.1,58.0,29.91,North,355,5.0,-999.0,70,-99.99,,,0.00,weatherlink.com 1.10,2013-06-03 21:15:00,
2013-06-03 17:30:00,67.1,59.0,29.90,NW,307,5.0,-999.0,74,-99.99,,,0.00,weatherlink.com 1.10,2013-06-03 21:30:00,
2013-06-03 17:45:00,67.4,58.0,29.91,NW,309,5.0,-999.0,73,-99.99,,,0.00,weatherlink.com 1.10,2013-06-03 21:45:00,
2013-06-03 18:00:00,68.1,58.0,29.91,WNW,298,4.0,-999.0,71,-99.99,,,0.00,weatherlink.com 1.10,2013-06-03 22:00:00,
2013-06-03 18:15:00,68.4,58.0,29.91,NW,316,4.0,-999.0,70,-99.99,,,0.00,weatherlink.com 1.10,2013-06-03 22:15:00,
2013-06-03 18:30:00,68.1,58.0,29.92,NW,315,3.0,-999.0,69,-99.99,,,0.00,weatherlink.com 1.10,2013-06-03 22:30:00,
2013-06-03 18:45:00,68.4,59.0,29.92,NW,315,3.0,-999.0,73,-99.99,,,0.00,weatherlink.com 1.10,2013-06-03 22:45:00,
2013-06-03 19:00:00,68.9,59.0,29.92,WNW,300,3.0,-999.0,70,-99.99,,,0.00,weatherlink.com 1.10,2013-06-03 23:00:00,
2013-06-03 19:15:00,68.6,58.0,29.93,NNW,328,2.0,-999.0,68,-99.99,,,0.00,weatherlink.com 1.10,2013-06-03 23:15:00,
2013-06-03 19:30:00,68.3,57.0,29.93,NW,319,2.0,-999.0,68,-99.99,,,0.00,weatherlink.com 1.10,2013-06-03 23:30:00,
2013-06-03 19:45:00,67.4,57.0,29.94,WNW,300,1.0,-999.0,70,-99.99,,,0.00,weatherlink.com 1.10,2013-06-03 23:45:00,
2013-06-03 20:00:00,66.1,57.0,29.95,NW,319,2.0,-999.0,72,-99.99,,,0.00,weatherlink.com 1.10,2013-06-04 00:00:00,
2013-06-03 20:15:00,64.0,56.0,29.95,NNW,346,2.0,-999.0,76,-99.99,,,0.00,weatherlink.com 1.10,2013-06-04 00:15:00,
2013-06-03 20:30:00,63.2,56.0,29.96,NW,320,1.0,-999.0,77,-99.99,,,0.00,weatherlink.com 1.10,2013-06-04 00:30:00,
2013-06-03 20:45:00,62.7,56.0,29.96,NW,306,0.0,-999.0,79,-99.99,,,0.00,weatherlink.com 1.10,2013-06-04 00:45:00,
2013-06-03 21:00:00,62.1,56.0,29.96,NW,306,0.0,-999.0,80,-99.99,,,0.00,weatherlink.com 1.10,2013-06-04 01:00:00,
2013-06-03 21:15:00,61.8,56.0,29.98,NW,306,0.0,-999.0,81,-99.99,,,0.00,weatherlink.com 1.10,2013-06-04 01:15:00,
2013-06-03 21:30:00,61.5,56.0,29.98,NW,306,0.0,-999.0,82,-99.99,,,0.00,weatherlink.com 1.10,2013-06-04 01:30:00,
2013-06-03 21:45:00,61.5,56.0,29.99,NW,306,0.0,-999.0,83,-99.99,,,0.00,weatherlink.com 1.10,2013-06-04 01:45:00,
2013-06-03 22:00:00,61.3,56.0,29.99,NW,306,0.0,-999.0,83,-99.99,,,0.00,weatherlink.com 1.10,2013-06-04 02:00:00,
2013-06-03 22:15:00,61.0,56.0,30.00,NW,306,0.0,-999.0,84,-99.99,,,0.00,weatherlink.com 1.10,2013-06-04 02:15:00,
2013-06-03 22:30:00,60.5,56.0,30.01,NW,306,0.0,-999.0,85,-99.99,,,0.00,weatherlink.com 1.10,2013-06-04 02:30:00,
2013-06-03 22:45:00,60.1,56.0,30.01,NW,306,0.0,-999.0,85,-99.99,,,0.00,weatherlink.com 1.10,2013-06-04 02:45:00,
2013-06-03 23:00:00,60.1,56.0,30.02,NW,306,0.0,-999.0,85,-99.99,,,0.00,weatherlink.com 1.10,2013-06-04 03:00:00,
2013-06-03 23:15:00,60.1,56.0,30.03,NW,306,0.0,-999.0,85,-99.99,,,0.00,weatherlink.com 1.10,2013-06-04 03:15:00,
2013-06-03 23:30:00,60.1,55.0,30.03,NW,306,0.0,-999.0,84,-99.99,,,0.00,weatherlink.com 1.10,2013-06-04 03:30:00,
2013-06-03 23:45:00,60.1,55.0,30.03,NW,306,0.0,-999.0,84,-99.99,,,0.00,weatherlink.com 1.10,2013-06-04 03:45:00,